El-Giza, Egypt

58.5°F / 14.7°C
Clear
Humidity: 69%
Dew Point: 48°F / 9°C
Wind: WNW at 0 mph / 0.0 km/h
Wind Gust: 0.0 mph / 0.0 km/h
Pressure: 30.15 in / 1021 hPa (Steady)
Visibility: -
Clouds:
Yesterday's Maximum: 70.7°F / 21.5°C
Yesterday's Minimum: 55.2°F / 12.9°C
Sunrise:6:29 AM EET
Sunset:5:48 PM EET
Moon Rise:7:58 PM EET
Moon Set:7:52 AM EET
Moon Phase Waning Gibbous
NOAA Weather Radio
No local feed.
METAR HECA 212100Z 00000KT CAVOK 14/08 Q1021 NOSIG
As of: 11:06 PM EET on February 21, 2019
Observed at: Garden City, Four Seasons Nile Hotel, Tahrir Square, Cairo, Egypt

View Station's History

No Yes

Local Satellite

Current Satellite Forecast
Region Default Local
No Yes

View Full Screen WunderMap

Forecast

Current Satellite Forecast
Wednesday
. High: 70° F. / 21° C.

. High: 72° F. / 22° C.

Features

Weather Apps

WunderRadio

Weather Underground Apps
Check out our wide variety of mobile and setup applications.

Weather Underground Applications

Top of Page

© Copyright 2019
The Weather Company, LLC